Terminal Aerodrome Forecast
Issued by NWS

Home | Current Version | Previous Version | Text Only | Print | Product List | Glossary On
Versions: 1 2 3 4 5 6 7 8 9 10 11 12 13
053
FTUS45 KRIW 271728
TAFBPI
TAF
KBPI 271728Z 2718/2818 35010G17KT P6SM SCT060
     FM280100 35009KT P6SM FEW080=

USA.gov is the U.S. government's official web portal to all federal, state and local government web resources and services.